Time;durP1;ratioP1;P1;durP2;ratioP2;P2;SDS_P1;SDS_P2;PMS_P1;PMS_P2;Temp;Humidity;BMP_temperature;BMP_pressure;BME280_temperature;BME280_humidity;BME280_pressure;Samples;Min_cycle;Max_cycle;Signal;HPM_P1;HPM_P2
2022/08/14 00:02:07;;;;;;;14.45;10.35;;;;;;;23.80;61.74;94410.47;5082938;28;20044;-54
2022/08/14 00:04:33;;;;;;;13.02;9.57;;;;;;;23.82;61.25;94413.41;5083679;28;20077;-54
2022/08/14 00:06:59;;;;;;;13.45;10.57;;;;;;;23.74;61.79;94412.56;5057250;28;20119;-54
2022/08/14 00:09:24;;;;;;;12.23;10.00;;;;;;;23.70;61.63;94384.88;5057335;28;20541;-53
2022/08/14 00:11:50;;;;;;;14.63;10.40;;;;;;;23.75;61.58;94403.13;5082560;28;20032;-53
2022/08/14 00:14:15;;;;;;;12.95;9.40;;;;;;;23.74;61.80;94401.66;5072209;28;20035;-53
2022/08/14 00:16:41;;;;;;;13.82;9.70;;;;;;;23.51;61.96;94367.88;5067931;28;20036;-53
2022/08/14 00:19:06;;;;;;;14.45;10.45;;;;;;;23.69;62.24;94400.53;5087658;28;20913;-52
2022/08/14 00:21:32;;;;;;;12.73;9.63;;;;;;;23.67;61.75;94392.13;5077283;28;20041;-53
2022/08/14 00:23:57;;;;;;;15.13;10.48;;;;;;;23.67;61.84;94396.84;5082221;28;20036;-53
2022/08/14 00:26:23;;;;;;;14.70;10.38;;;;;;;23.75;61.55;94389.47;5080744;28;20040;-53
2022/08/14 00:28:50;;;;;;;15.10;10.80;;;;;;;23.75;61.61;94389.47;5087301;28;20664;-53
2022/08/14 00:31:16;;;;;;;12.75;10.13;;;;;;;23.69;62.11;94395.06;5079048;28;20039;-53
2022/08/14 00:33:41;;;;;;;18.40;10.77;;;;;;;23.62;62.01;94394.94;5086454;28;20039;-53
2022/08/14 00:36:08;;;;;;;15.25;10.93;;;;;;;23.53;61.82;94368.09;5086718;28;20577;-55
2022/08/14 00:38:33;;;;;;;15.30;11.40;;;;;;;23.59;61.95;94390.53;5082098;28;20044;-53
2022/08/14 00:40:59;;;;;;;15.82;11.68;;;;;;;23.68;61.81;94398.31;5086493;28;20407;-53
2022/08/14 00:43:24;;;;;;;17.45;11.25;;;;;;;23.63;62.24;94396.38;5086574;28;20028;-53
2022/08/14 00:45:50;;;;;;;13.73;10.77;;;;;;;23.67;62.03;94385.94;5076001;28;20461;-53
2022/08/14 00:48:17;;;;;;;18.05;11.65;;;;;;;23.71;62.26;94394.53;5086176;28;20036;-53
2022/08/14 00:50:43;;;;;;;20.00;11.63;;;;;;;23.55;61.93;94362.84;5052235;28;20048;-55
2022/08/14 00:53:09;;;;;;;16.73;11.45;;;;;;;23.68;62.55;94398.31;5047539;28;20032;-52
2022/08/14 00:55:35;;;;;;;18.38;12.35;;;;;;;23.51;62.35;94362.44;5076857;28;20032;-53
2022/08/14 01:00:45;;;;;;;20.05;12.90;;;;;;;23.62;62.49;94378.59;5063217;28;20031;-53
2022/08/14 01:03:10;;;;;;;21.42;13.50;;;;;;;23.57;62.48;94360.34;5049917;28;20770;-52
2022/08/14 01:05:36;;;;;;;20.90;13.43;;;;;;;23.64;62.40;94362.47;5086270;28;20028;-53
2022/08/14 01:08:01;;;;;;;19.60;14.32;;;;;;;23.59;62.61;94363.28;5082740;28;20504;-53
2022/08/14 01:10:49;;;;;;;19.80;13.55;;;;;;;23.70;62.03;94365.81;5087063;28;20506;-53
2022/08/14 01:13:15;;;;;;;18.83;12.80;;;;;;;23.66;62.50;94362.66;5084026;28;20044;-53
2022/08/14 01:15:50;;;;;;;18.70;12.60;;;;;;;23.73;62.24;94367.47;5047284;28;20361;-53
2022/08/14 01:21:02;;;;;;;17.55;12.68;;;;;;;23.69;62.26;94364.31;5080680;28;20035;-53
2022/08/14 01:23:29;;;;;;;19.25;13.00;;;;;;;23.68;62.69;94355.44;5076618;28;20040;-53
2022/08/14 01:25:55;;;;;;;16.77;12.27;;;;;;;23.66;62.25;94362.66;5075072;28;20933;-53
2022/08/14 01:28:25;;;;;;;15.48;12.23;;;;;;;23.59;62.13;94341.47;5057077;28;20032;-53
2022/08/14 01:30:54;;;;;;;;;;;;;;;23.60;62.71;94353.81;5065419;28;20093;-53
2022/08/14 01:33:21;;;;;;;16.83;11.25;;;;;;;23.65;61.98;94353.03;5085300;28;19939;-53
2022/08/14 01:35:46;;;;;;;14.38;11.00;;;;;;;23.68;62.04;94357.44;5067110;28;20059;-53
2022/08/14 01:38:13;;;;;;;14.18;11.30;;;;;;;23.67;61.82;94364.13;5076383;28;20126;-54
2022/08/14 01:40:39;;;;;;;13.65;10.80;;;;;;;23.65;61.83;94361.94;5078898;28;20020;-53
2022/08/14 01:43:13;;;;;;;11.52;9.90;;;;;;;23.59;62.05;94357.84;5071776;28;20557;-53
2022/08/14 01:45:39;;;;;;;12.30;9.43;;;;;;;23.59;62.03;94352.38;5081233;28;20060;-53
2022/08/14 01:48:05;;;;;;;10.70;9.13;;;;;;;23.56;61.96;94348.69;5083506;28;20144;-53
2022/08/14 01:50:31;;;;;;;12.98;9.80;;;;;;;23.48;61.43;94336.22;5100525;28;20065;-53
2022/08/14 01:52:56;;;;;;;14.27;9.70;;;;;;;23.58;61.55;94356.34;5069727;28;20033;-54
2022/08/14 01:55:22;;;;;;;11.27;9.65;;;;;;;23.53;61.53;94349.75;5085904;28;20024;-53
2022/08/14 01:57:47;;;;;;;12.30;9.57;;;;;;;23.55;61.56;94346.50;5084542;28;20040;-53
2022/08/14 02:00:17;;;;;;;13.13;9.48;;;;;;;23.53;61.83;94344.31;5079871;28;20063;-54
2022/08/14 02:02:42;;;;;;;;;;;;;;;23.57;61.44;94349.44;5077794;28;20580;-53
2022/08/14 02:05:11;;;;;;;11.70;9.67;;;;;;;23.61;61.65;94356.03;5072686;28;19941;-53
2022/08/14 02:07:36;;;;;;;13.98;10.93;;;;;;;23.50;61.14;94333.72;5082015;28;20286;-53
2022/08/14 02:10:03;;;;;;;12.32;9.93;;;;;;;23.49;61.13;94332.25;5084758;28;20399;-53
2022/08/14 02:12:29;;;;;;;14.13;10.48;;;;;;;23.64;61.18;94344.09;5084454;28;20097;-53
2022/08/14 02:14:55;;;;;;;13.75;9.93;;;;;;;23.73;60.75;94345.66;5082437;28;20028;-53
2022/08/14 02:17:22;;;;;;;12.10;9.80;;;;;;;23.57;61.14;94349.44;5072190;28;20028;-53
2022/08/14 02:19:48;;;;;;;11.38;10.15;;;;;;;23.54;61.81;94345.03;5066334;28;20031;-53
2022/08/14 02:22:16;;;;;;;12.07;9.75;;;;;;;23.60;60.96;94343.69;5070775;28;20032;-55
2022/08/14 02:24:42;;;;;;;11.70;9.85;;;;;;;23.64;61.20;94332.47;5078256;28;20495;-55
2022/08/14 02:27:09;;;;;;;12.88;9.15;;;;;;;23.62;60.67;94340.44;5070961;28;20056;-54
2022/08/14 02:29:35;;;;;;;13.88;10.20;;;;;;;23.66;60.93;94335.41;5056135;28;20043;-54
2022/08/14 02:32:01;;;;;;;13.27;10.20;;;;;;;23.65;60.52;94344.84;5066192;28;20036;-53
2022/08/14 02:34:30;;;;;;;12.85;9.65;;;;;;;23.58;60.75;94345.44;5071003;28;20028;-54
2022/08/14 02:36:58;;;;;;;12.40;10.10;;;;;;;23.50;61.19;94344.63;5084063;28;20036;-54
2022/08/14 02:39:24;;;;;;;15.05;10.40;;;;;;;23.59;60.61;94333.31;5080561;28;20131;-56
2022/08/14 02:41:51;;;;;;;13.02;10.45;;;;;;;23.60;60.37;94342.94;5084036;28;20093;-56
2022/08/14 02:44:19;;;;;;;12.23;10.10;;;;;;;23.63;60.93;94341.88;5083135;28;20036;-55
2022/08/14 02:46:45;;;;;;;13.38;10.02;;;;;;;23.42;60.82;94321.97;5066591;28;20027;-54
2022/08/14 02:49:11;;;;;;;13.85;10.13;;;;;;;23.31;60.55;94311.31;5077250;28;20028;-54
2022/08/14 02:51:36;;;;;;;15.65;10.15;;;;;;;23.56;60.86;94345.25;5083660;28;20059;-53
2022/08/14 02:54:02;;;;;;;12.18;10.05;;;;;;;23.51;60.79;94340.63;5065366;28;20093;-56
2022/08/14 02:56:28;;;;;;;11.50;9.38;;;;;;;23.64;60.17;94332.47;5065545;28;20689;-55
2022/08/14 02:58:55;;;;;;;11.55;9.38;;;;;;;23.44;60.55;94319.47;5078704;28;20024;-55
2022/08/14 03:01:21;;;;;;;10.57;9.45;;;;;;;23.58;60.43;94345.44;5079603;28;20114;-55
2022/08/14 03:03:48;;;;;;;13.65;9.45;;;;;;;23.63;60.26;94337.16;5048462;28;20495;-55
2022/08/14 03:06:14;;;;;;;13.43;9.80;;;;;;;23.55;60.75;94330.88;5079580;28;20048;-55
2022/08/14 03:08:40;;;;;;;12.35;9.80;;;;;;;23.64;60.40;94340.66;5074026;28;20056;-56
2022/08/14 03:11:10;;;;;;;13.98;9.95;;;;;;;23.53;60.40;94329.94;5078087;28;20069;-56
2022/08/14 03:13:37;;;;;;;;;;;;;;;23.68;59.98;94343.81;5066037;28;20062;-55
2022/08/14 03:16:03;;;;;;;14.63;10.32;;;;;;;23.75;60.11;94337.69;5063567;28;19973;-55
2022/08/14 03:18:29;;;;;;;12.13;9.90;;;;;;;23.78;59.57;94337.38;5079190;28;20044;-55
2022/08/14 03:20:54;;;;;;;12.98;9.88;;;;;;;23.64;60.52;94337.94;5079058;28;20427;-55
2022/08/14 03:23:20;;;;;;;13.23;10.75;;;;;;;23.69;59.90;94339.78;5073467;28;20422;-56
2022/08/14 03:25:46;;;;;;;14.63;10.95;;;;;;;23.58;60.12;94323.66;5083188;28;20051;-55
2022/08/14 03:28:11;;;;;;;17.08;11.10;;;;;;;23.66;60.59;94335.41;5084119;28;20028;-56
2022/08/14 03:30:37;;;;;;;17.33;10.85;;;;;;;23.62;60.22;94345.88;5075451;28;20037;-55
2022/08/14 03:33:03;;;;;;;17.65;11.63;;;;;;;23.65;60.36;94350.31;5076349;28;20028;-56
2022/08/14 03:35:29;;;;;;;18.00;12.43;;;;;;;23.59;60.56;94357.84;5083440;28;20040;-57
2022/08/14 03:38:03;;;;;;;16.17;11.85;;;;;;;23.64;60.71;94354.28;5083147;28;20410;-55
2022/08/14 03:40:28;;;;;;;16.98;12.48;;;;;;;23.66;60.03;94354.47;5072082;28;20063;-56
2022/08/14 03:42:54;;;;;;;17.42;11.80;;;;;;;23.70;60.37;94363.06;5080841;28;20493;-53
2022/08/14 03:45:19;;;;;;;16.85;12.18;;;;;;;23.51;59.74;94330.47;5079619;28;20399;-53
2022/08/14 03:47:45;;;;;;;18.45;12.32;;;;;;;23.73;60.19;94356.56;5083097;28;20119;-53
2022/08/14 03:50:10;;;;;;;16.77;12.20;;;;;;;23.66;60.04;94362.66;5083051;28;20036;-53
2022/08/14 03:52:36;;;;;;;17.38;13.05;;;;;;;23.62;60.09;94356.78;5065052;28;20028;-53
2022/08/14 03:55:05;;;;;;;16.80;13.30;;;;;;;23.72;60.12;94355.09;5082595;28;20028;-53
2022/08/14 03:57:32;;;;;;;18.80;13.05;;;;;;;23.75;59.72;94354.03;5078859;28;20043;-54
2022/08/14 04:00:00;;;;;;;17.77;13.07;;;;;;;23.71;59.54;94353.66;5082803;28;20032;-56
2022/08/14 04:02:26;;;;;;;18.10;14.02;;;;;;;23.64;59.61;94359.72;5083015;28;20036;-56
2022/08/14 04:04:52;;;;;;;17.30;12.82;;;;;;;23.66;59.76;94357.19;5054164;28;20427;-56
2022/08/14 04:07:18;;;;;;;16.92;13.38;;;;;;;23.43;59.77;94337.09;5080627;28;20020;-57
2022/08/14 04:09:43;;;;;;;16.52;13.88;;;;;;;23.70;59.60;94363.06;5065207;28;20040;-57
2022/08/14 04:12:09;;;;;;;16.77;13.65;;;;;;;23.73;59.10;94359.31;5077743;28;20247;-56
2022/08/14 04:14:34;;;;;;;17.67;13.90;;;;;;;23.77;59.17;94367.91;5073325;28;20041;-56
2022/08/14 04:17:00;;;;;;;19.65;14.02;;;;;;;23.72;59.63;94363.28;5081437;28;20515;-55
2022/08/14 04:19:25;;;;;;;16.85;13.13;;;;;;;23.70;59.64;94363.06;5083633;28;20085;-55
2022/08/14 04:21:51;;;;;;;20.05;14.25;;;;;;;23.72;59.17;94360.56;5070114;28;20036;-53
2022/08/14 04:24:16;;;;;;;17.33;13.80;;;;;;;23.68;59.56;94371.06;5080914;28;20411;-53
2022/08/14 04:26:43;;;;;;;17.80;14.30;;;;;;;23.58;59.68;94361.81;5055036;28;20367;-53
2022/08/14 04:29:12;;;;;;;19.25;14.55;;;;;;;23.60;59.81;94368.22;5069928;28;20033;-54
2022/08/14 04:31:38;;;;;;;16.27;14.43;;;;;;;23.48;60.12;94364.22;5059355;28;20108;-53
2022/08/14 04:34:04;;;;;;;19.52;14.38;;;;;;;23.45;60.47;94364.53;5061885;28;20031;-53
2022/08/14 04:36:31;;;;;;;17.75;14.57;;;;;;;23.34;61.14;94375.66;5061108;28;20519;-54
2022/08/14 04:44:25;;;;;;;19.48;15.00;;;;;;;23.30;60.81;94366.31;5059934;28;20094;-53
2022/08/14 04:49:35;;;;;;;18.73;14.93;;;;;;;23.37;61.30;94369.16;5061426;28;20039;-54
2022/08/14 04:52:03;;;;;;;17.02;14.70;;;;;;;23.37;60.58;94369.16;5061091;28;20037;-53
2022/08/14 04:54:29;;;;;;;18.48;14.98;;;;;;;23.35;61.26;94366.22;5043188;28;20035;-53
2022/08/14 04:56:54;;;;;;;17.65;14.00;;;;;;;23.19;61.82;94367.25;5043157;28;20232;-54
2022/08/14 04:59:20;;;;;;;18.27;14.40;;;;;;;23.32;61.34;94361.81;5061056;28;20032;-53
2022/08/14 05:01:46;;;;;;;17.02;14.38;;;;;;;23.17;61.30;94339.06;5059198;28;20055;-53
2022/08/14 05:04:11;;;;;;;17.40;14.07;;;;;;;23.25;61.83;94361.72;5062215;28;20028;-54
2022/08/14 05:06:38;;;;;;;15.88;13.23;;;;;;;23.31;61.69;94354.91;5063939;28;20036;-55
2022/08/14 05:09:04;;;;;;;16.65;13.82;;;;;;;23.25;61.75;94353.56;5064197;28;20068;-55
2022/08/14 05:11:32;;;;;;;18.55;13.85;;;;;;;23.35;61.38;94366.22;5064234;28;20041;-54
2022/08/14 05:13:58;;;;;;;14.77;13.02;;;;;;;23.42;61.09;94351.97;5062679;28;20054;-56
2022/08/14 05:16:28;;;;;;;15.95;13.23;;;;;;;23.38;61.40;94357.00;5063899;28;20020;-54
2022/08/14 05:18:54;;;;;;;15.32;13.15;;;;;;;23.42;61.14;94360.13;5062915;28;20040;-54
2022/08/14 05:21:20;;;;;;;15.32;13.23;;;;;;;23.49;61.20;94357.50;5062296;28;20029;-53
2022/08/14 05:23:46;;;;;;;15.82;12.70;;;;;;;23.47;61.24;94362.03;5063116;28;20040;-54
2022/08/14 05:26:20;;;;;;;16.00;12.98;;;;;;;23.40;61.21;94357.22;5063492;28;20499;-54
2022/08/14 05:28:45;;;;;;;16.88;12.18;;;;;;;23.51;60.97;94363.19;5063737;28;20099;-55
2022/08/14 05:31:12;;;;;;;13.90;12.15;;;;;;;23.55;61.14;94362.84;5064048;28;20230;-53
2022/08/14 05:33:38;;;;;;;16.33;13.00;;;;;;;23.60;60.49;94359.28;5063093;28;20033;-56
2022/08/14 05:36:06;;;;;;;14.63;12.75;;;;;;;23.53;61.07;94360.66;5063023;28;20738;-55
2022/08/14 05:38:34;;;;;;;15.88;12.00;;;;;;;23.45;61.77;94353.63;5062988;28;20044;-55
2022/08/14 05:41:11;;;;;;;14.85;12.98;;;;;;;23.48;61.16;94363.47;5045884;28;20481;-56
2022/08/14 05:43:38;;;;;;;13.40;11.93;;;;;;;23.47;61.60;94362.03;5065405;28;20153;-55
2022/08/14 05:46:03;;;;;;;15.40;12.52;;;;;;;23.53;61.17;94365.38;5053901;28;20036;-56
2022/08/14 05:48:28;;;;;;;13.88;12.07;;;;;;;23.49;61.00;94364.97;5077312;28;20043;-56
2022/08/14 05:50:54;;;;;;;13.07;11.35;;;;;;;23.51;60.72;94367.88;5085331;28;20024;-55
2022/08/14 05:53:23;;;;;;;13.35;11.32;;;;;;;23.57;61.01;94354.88;5084505;28;20144;-55
2022/08/14 05:55:49;;;;;;;13.73;10.75;;;;;;;23.52;61.10;94358.47;5076751;28;20027;-55
2022/08/14 05:58:15;;;;;;;11.50;10.10;;;;;;;23.71;60.46;94356.38;5080603;28;20507;-54
2022/08/14 06:00:41;;;;;;;13.88;10.70;;;;;;;23.65;60.54;94347.56;5079288;28;20430;-54
2022/08/14 06:03:15;;;;;;;12.35;11.00;;;;;;;23.82;60.77;94358.88;5072554;28;20051;-57
2022/08/14 06:05:41;;;;;;;11.80;10.32;;;;;;;23.86;60.37;94366.19;5063901;28;20084;-54
2022/08/14 06:08:21;;;;;;;11.90;9.77;;;;;;;23.94;60.14;94361.53;5059909;28;20043;-54
2022/08/14 06:10:47;;;;;;;11.85;10.40;;;;;;;24.10;60.03;94374.09;5063994;28;20174;-53
2022/08/14 06:13:12;;;;;;;14.20;9.63;;;;;;;23.99;60.00;94379.81;5066694;28;20031;-55
2022/08/14 06:15:38;;;;;;;11.10;10.00;;;;;;;24.09;59.50;94380.81;5061802;28;20047;-55
2022/08/14 06:18:04;;;;;;;11.45;9.63;;;;;;;24.17;59.45;94368.00;5062771;28;20098;-55
2022/08/14 06:20:29;;;;;;;11.73;9.35;;;;;;;24.22;58.54;94372.59;5062465;28;20064;-54
2022/08/14 06:22:55;;;;;;;10.57;8.65;;;;;;;24.27;58.28;94371.72;5062641;28;20030;-55
2022/08/14 06:25:20;;;;;;;11.20;9.13;;;;;;;23.73;57.73;94277.50;5063323;28;20056;-53
2022/08/14 06:27:46;;;;;;;10.02;8.98;;;;;;;24.45;57.53;94381.78;5077494;28;20060;-53
2022/08/14 06:30:15;;;;;;;10.52;8.63;;;;;;;24.45;57.40;94376.31;5050093;28;20033;-55
2022/08/14 06:32:40;;;;;;;9.88;8.88;;;;;;;24.62;57.09;94373.91;5065805;28;20420;-55
2022/08/14 06:35:06;;;;;;;10.93;8.63;;;;;;;24.65;56.75;94378.31;5062706;28;20032;-56
2022/08/14 06:37:57;;;;;;;10.13;8.60;;;;;;;24.66;56.57;94385.25;5064025;28;20115;-57
2022/08/14 06:40:24;;;;;;;9.57;7.90;;;;;;;24.76;56.16;94383.53;5058498;28;20554;-56
2022/08/14 06:42:50;;;;;;;8.77;7.88;;;;;;;24.88;56.00;94386.16;5061293;28;20295;-55
2022/08/14 06:45:16;;;;;;;9.05;7.70;;;;;;;24.93;55.66;94382.59;5060992;28;21410;-55
2022/08/14 06:47:42;;;;;;;9.15;7.90;;;;;;;24.93;55.76;94377.13;5043909;28;20504;-54
2022/08/14 06:50:10;;;;;;;8.60;7.70;;;;;;;24.80;55.61;94389.38;5061623;28;20041;-53
2022/08/14 06:52:36;;;;;;;9.93;8.15;;;;;;;24.72;55.57;94355.81;5061233;28;20051;-54
2022/08/14 06:55:03;;;;;;;9.77;8.40;;;;;;;24.75;55.97;94382.06;5061341;28;20060;-56
2022/08/14 07:00:28;;;;;;;8.32;7.25;;;;;;;24.96;54.79;94388.97;4937017;22;20124;-55
2022/08/14 07:05:47;;;;;;;7.55;6.75;;;;;;;25.19;54.13;94379.72;5033361;28;20040;-56
2022/08/14 07:08:21;;;;;;;6.85;6.15;;;;;;;25.20;54.18;94378.44;5051352;28;20025;-56
2022/08/14 07:10:50;;;;;;;7.80;7.07;;;;;;;25.05;54.49;94383.81;5058570;28;20107;-54
2022/08/14 07:13:17;;;;;;;7.40;6.30;;;;;;;25.25;54.09;94391.22;5057581;28;20017;-57
2022/08/14 07:15:46;;;;;;;8.27;6.82;;;;;;;25.38;53.67;94382.91;5054512;28;20028;-55
2022/08/14 07:18:12;;;;;;;7.40;6.65;;;;;;;25.50;53.56;94386.81;5048305;28;20025;-55
2022/08/14 07:20:38;;;;;;;7.10;6.30;;;;;;;25.47;53.87;94382.44;5044870;28;20060;-55
2022/08/14 07:23:05;;;;;;;7.63;6.43;;;;;;;25.63;53.24;94381.25;5045591;28;20025;-54
2022/08/14 07:25:30;;;;;;;6.85;6.03;;;;;;;25.71;53.02;94390.25;5046318;28;20039;-55
2022/08/14 07:27:56;;;;;;;6.68;5.95;;;;;;;25.63;53.20;94386.72;5045373;28;20029;-55
2022/08/14 07:30:22;;;;;;;7.50;6.18;;;;;;;25.73;53.15;94390.47;5041840;28;20499;-55
2022/08/14 07:32:53;;;;;;;7.20;6.30;;;;;;;25.75;53.12;94385.19;5026822;28;20460;-56
2022/08/14 07:35:18;;;;;;;8.18;6.07;;;;;;;25.70;52.76;94394.28;5023367;28;20031;-55
2022/08/14 07:37:47;;;;;;;6.22;5.15;;;;;;;25.64;52.26;94371.78;5021034;28;20025;-58
2022/08/14 07:40:13;;;;;;;6.22;5.10;;;;;;;25.85;52.08;94393.06;5025129;28;20030;-55
2022/08/14 07:42:56;;;;;;;6.50;5.03;;;;;;;25.72;52.03;94395.19;5021239;28;20032;-54
2022/08/14 07:45:23;;;;;;;7.07;5.00;;;;;;;25.86;51.52;94394.53;5026239;28;20109;-55
2022/08/14 07:47:56;;;;;;;6.50;4.65;;;;;;;25.89;51.55;94398.94;5026697;28;20036;-54
2022/08/14 07:50:25;;;;;;;5.97;4.90;;;;;;;25.80;51.41;94396.69;5022974;28;20048;-54
2022/08/14 07:52:51;;;;;;;5.75;4.93;;;;;;;25.93;51.54;94398.56;5019028;28;20539;-55
2022/08/14 07:55:17;;;;;;;5.00;4.50;;;;;;;26.07;50.92;94386.22;5023544;28;20036;-54
2022/08/14 07:57:44;;;;;;;4.72;4.15;;;;;;;25.85;51.13;94398.53;5020881;28;20494;-55
2022/08/14 08:00:21;;;;;;;4.78;3.88;;;;;;;26.38;49.83;94391.28;5019230;28;20091;-54
2022/08/14 08:02:48;;;;;;;4.55;4.03;;;;;;;26.04;50.92;94399.00;5020204;28;20029;-54
2022/08/14 08:05:14;;;;;;;6.13;4.00;;;;;;;26.18;50.75;94397.59;5024510;28;20408;-55
2022/08/14 08:07:40;;;;;;;4.78;4.07;;;;;;;26.17;50.72;94390.63;5031057;28;20049;-55
2022/08/14 08:12:52;;;;;;;6.35;4.43;;;;;;;25.86;51.49;94394.53;5036186;28;20044;-56
2022/08/14 08:15:18;;;;;;;5.32;4.20;;;;;;;25.93;51.25;94393.09;5036473;28;20031;-56
2022/08/14 08:17:43;;;;;;;5.35;4.10;;;;;;;26.01;50.92;94393.88;5038420;28;20025;-54
2022/08/14 08:20:21;;;;;;;3.97;3.58;;;;;;;25.81;51.54;94391.94;5018351;28;20032;-54
2022/08/14 08:22:47;;;;;;;5.47;3.67;;;;;;;25.89;51.36;94387.25;5032996;28;20029;-55
2022/08/14 08:25:13;;;;;;;4.35;3.65;;;;;;;26.08;51.00;94382.94;5038082;28;20032;-55
2022/08/14 08:27:39;;;;;;;5.00;3.85;;;;;;;26.15;50.41;94382.25;5036768;28;20060;-54
2022/08/14 08:30:08;;;;;;;7.13;4.07;;;;;;;26.08;50.73;94377.47;5023384;28;20033;-54
2022/08/14 08:32:40;;;;;;;5.70;3.70;;;;;;;26.04;50.60;94382.56;5038514;28;20040;-54
2022/08/14 08:35:09;;;;;;;3.83;3.42;;;;;;;25.85;50.62;94387.59;5037975;28;20021;-56
2022/08/14 08:37:35;;;;;;;3.75;3.20;;;;;;;25.49;50.67;94308.81;5040296;28;20028;-55
2022/08/14 08:40:00;;;;;;;5.35;3.25;;;;;;;26.02;50.57;94385.13;5040580;28;20040;-55
2022/08/14 08:42:26;;;;;;;3.63;3.15;;;;;;;26.23;49.97;94388.47;5041199;28;20789;-53
2022/08/14 08:44:54;;;;;;;3.75;3.10;;;;;;;26.22;49.79;94389.00;5041990;28;20044;-54
2022/08/14 08:47:20;;;;;;;3.42;2.90;;;;;;;26.26;50.05;94381.91;5042825;28;20029;-54
2022/08/14 08:49:46;;;;;;;5.10;3.17;;;;;;;26.13;50.34;94378.56;5040766;28;20039;-55
2022/08/14 08:52:11;;;;;;;3.72;2.97;;;;;;;25.98;50.33;94378.53;5042712;28;20650;-54
2022/08/14 08:54:37;;;;;;;3.08;2.65;;;;;;;26.20;50.20;94384.06;5024840;28;20025;-55
2022/08/14 08:57:09;;;;;;;3.35;2.70;;;;;;;26.32;50.18;94380.50;5042997;28;20020;-55
2022/08/14 08:59:35;;;;;;;3.40;2.75;;;;;;;26.23;50.52;94377.50;5040868;28;20048;-57
2022/08/14 09:02:09;;;;;;;5.15;3.13;;;;;;;26.25;50.30;94380.47;5042584;28;20033;-55
2022/08/14 09:04:37;;;;;;;3.22;2.90;;;;;;;25.61;50.18;94296.31;5042466;28;20185;-55
2022/08/14 09:07:02;;;;;;;4.60;2.60;;;;;;;26.25;50.08;94368.75;5040630;28;20024;-56
2022/08/14 09:09:29;;;;;;;4.22;2.63;;;;;;;26.25;49.99;94358.56;5042557;28;20036;-60
2022/08/14 09:11:56;;;;;;;3.65;2.58;;;;;;;26.39;49.41;94365.38;5041196;28;20020;-55
2022/08/14 09:14:22;;;;;;;3.13;2.67;;;;;;;26.17;49.72;94363.25;5042194;28;20048;-56
2022/08/14 09:16:50;;;;;;;5.20;2.80;;;;;;;26.15;49.97;94359.63;5041782;28;20028;-56
2022/08/14 09:19:16;;;;;;;3.60;2.50;;;;;;;25.50;49.30;94241.91;5040960;28;20379;-56
2022/08/14 09:21:41;;;;;;;4.22;3.03;;;;;;;26.47;49.12;94357.88;5042546;28;20657;-55
2022/08/14 09:24:07;;;;;;;3.40;2.90;;;;;;;26.59;48.65;94348.06;5024587;28;20086;-55
2022/08/14 09:26:33;;;;;;;3.28;2.75;;;;;;;26.55;48.93;94358.66;5042846;28;20028;-54
2022/08/14 09:28:58;;;;;;;3.58;3.08;;;;;;;26.46;49.50;94350.97;5040865;28;20025;-55
2022/08/14 09:31:24;;;;;;;4.95;3.10;;;;;;;26.56;48.96;94354.63;5042762;28;20036;-56
2022/08/14 09:34:17;;;;;;;5.10;3.28;;;;;;;26.26;50.09;94354.53;5023842;28;20076;-54
2022/08/14 09:37:04;;;;;;;4.03;3.58;;;;;;;26.49;49.59;94360.84;5025134;28;20515;-55
2022/08/14 09:40:11;;;;;;;3.92;3.53;;;;;;;26.62;49.66;94363.38;5041196;28;20405;-55
2022/08/14 09:42:59;;;;;;;3.60;3.30;;;;;;;26.50;49.31;94356.81;4990713;28;20129;-55
2022/08/14 09:45:32;;;;;;;4.10;3.53;;;;;;;26.07;50.63;94359.59;5020118;28;20452;-54
2022/08/14 09:47:57;;;;;;;4.25;3.22;;;;;;;26.15;50.66;94349.41;5045177;28;20104;-54
2022/08/14 09:50:35;;;;;;;5.22;3.75;;;;;;;26.10;50.77;94358.50;5043687;28;20415;-55
2022/08/14 09:53:05;;;;;;;5.20;4.15;;;;;;;26.11;50.62;94359.22;5025457;28;20117;-55
2022/08/14 09:55:34;;;;;;;4.13;3.30;;;;;;;26.17;50.76;94354.31;5043017;28;20776;-54
2022/08/14 09:58:16;;;;;;;3.83;3.53;;;;;;;25.87;50.90;94338.56;5030237;28;20034;-57
2022/08/14 10:00:59;;;;;;;4.32;3.67;;;;;;;25.82;51.63;94350.38;5044792;28;20091;-55
2022/08/14 10:03:35;;;;;;;3.97;3.40;;;;;;;25.88;51.45;94337.25;5044699;28;20031;-54
2022/08/14 10:06:10;;;;;;;3.58;3.28;;;;;;;25.80;51.53;94352.94;5045695;28;20033;-55
2022/08/14 10:08:44;;;;;;;3.53;3.22;;;;;;;25.90;51.07;94351.16;5043142;28;20151;-56
2022/08/14 10:11:35;;;;;;;3.75;3.20;;;;;;;25.87;50.98;94346.75;5042972;28;20121;-57
2022/08/14 10:14:17;;;;;;;5.18;3.40;;;;;;;25.87;51.19;94346.00;5044382;28;20024;-56
2022/08/14 10:16:44;;;;;;;3.90;3.38;;;;;;;25.85;51.04;94349.28;5045385;28;20017;-55
2022/08/14 10:19:14;;;;;;;4.13;3.13;;;;;;;25.81;50.96;94338.00;5045262;28;20504;-56
2022/08/14 10:21:40;;;;;;;;;;;;;;;25.62;51.77;94347.72;5032275;28;20033;-55
2022/08/14 10:24:07;;;;;;;3.75;3.40;;;;;;;25.60;51.57;94349.50;5045638;28;19917;-54
2022/08/14 10:26:33;;;;;;;3.80;3.30;;;;;;;25.54;51.59;94340.75;5044150;28;20017;-54
2022/08/14 10:29:05;;;;;;;3.47;2.90;;;;;;;25.37;51.49;94329.53;5044688;28;20052;-56
2022/08/14 10:31:32;;;;;;;4.93;3.08;;;;;;;25.06;52.09;94278.69;5045502;28;20075;-55
2022/08/14 10:34:00;;;;;;;3.58;3.28;;;;;;;25.42;51.88;94345.03;5034854;28;20021;-54
2022/08/14 10:36:31;;;;;;;3.50;2.80;;;;;;;25.32;51.92;94324.97;5041356;28;20037;-54
2022/08/14 10:38:58;;;;;;;4.25;3.25;;;;;;;25.39;51.81;94346.13;5044434;28;20025;-56
2022/08/14 10:41:34;;;;;;;3.72;2.78;;;;;;;25.27;51.75;94317.63;5026804;28;20041;-55
2022/08/14 10:44:20;;;;;;;3.72;3.20;;;;;;;25.28;51.92;94330.03;5043275;28;20114;-56
2022/08/14 10:46:51;;;;;;;4.72;3.25;;;;;;;25.31;52.11;94318.03;5044393;28;20029;-56
2022/08/14 10:49:25;;;;;;;3.90;3.05;;;;;;;25.12;51.61;94301.13;5044571;28;20052;-55
2022/08/14 10:52:00;;;;;;;3.83;2.92;;;;;;;25.15;51.92;94310.28;5044311;28;20036;-54
2022/08/14 10:54:30;;;;;;;3.45;2.80;;;;;;;25.36;51.83;94308.94;5043830;28;20095;-56
2022/08/14 10:57:14;;;;;;;3.85;3.20;;;;;;;25.26;52.09;94316.19;5044552;28;20091;-55
2022/08/14 10:59:41;;;;;;;3.30;3.00;;;;;;;25.37;51.66;94304.94;5050575;28;20060;-54
2022/08/14 11:02:28;;;;;;;3.35;3.05;;;;;;;25.31;51.56;94307.09;5062092;28;20577;-54
2022/08/14 11:05:06;;;;;;;3.80;3.40;;;;;;;25.22;52.11;94296.66;5064076;28;20032;-54
2022/08/14 11:07:38;;;;;;;3.58;3.03;;;;;;;25.30;51.51;94304.91;5065109;28;20024;-54
2022/08/14 11:10:12;;;;;;;3.60;3.28;;;;;;;25.29;51.63;94293.25;5057296;28;20605;-56
2022/08/14 11:12:50;;;;;;;3.88;3.25;;;;;;;25.40;51.45;94282.00;5063978;28;20498;-55
2022/08/14 11:15:21;;;;;;;3.45;3.15;;;;;;;25.39;51.61;94288.72;5064675;28;20036;-55
2022/08/14 11:17:47;;;;;;;4.47;3.25;;;;;;;25.21;51.77;94254.19;5063613;28;20017;-55
2022/08/14 11:20:14;;;;;;;3.72;3.15;;;;;;;25.48;51.75;94282.75;5063022;28;20031;-54
2022/08/14 11:22:41;;;;;;;3.30;2.92;;;;;;;25.02;51.84;94206.56;5064161;28;20040;-54
2022/08/14 11:25:09;;;;;;;4.18;3.33;;;;;;;24.88;52.13;94184.06;5064353;28;20032;-55
2022/08/14 11:27:34;;;;;;;3.95;3.55;;;;;;;25.47;51.68;94275.81;5062454;28;20039;-55
2022/08/14 11:30:05;;;;;;;3.80;3.40;;;;;;;25.44;51.84;94271.41;5062362;28;20032;-55
2022/08/14 11:32:32;;;;;;;3.95;3.50;;;;;;;24.64;51.16;94158.44;5062927;28;20631;-55
2022/08/14 11:34:58;;;;;;;4.95;3.03;;;;;;;25.43;51.13;94281.63;5063564;28;20426;-54
2022/08/14 11:37:24;;;;;;;4.50;3.38;;;;;;;25.42;51.11;94279.44;5064540;28;20036;-54
2022/08/14 11:39:49;;;;;;;4.50;3.40;;;;;;;25.36;51.41;94284.31;5063427;28;20028;-57
2022/08/14 11:42:22;;;;;;;3.92;3.53;;;;;;;25.32;51.10;94286.69;5056025;28;20029;-55
2022/08/14 11:44:48;;;;;;;3.30;3.00;;;;;;;25.30;51.12;94278.28;5069941;28;20028;-56
2022/08/14 11:47:18;;;;;;;3.88;3.47;;;;;;;25.35;51.12;94278.13;5063816;28;20471;-56
2022/08/14 11:49:47;;;;;;;;;;;;;;;25.47;50.57;94281.28;5064497;28;20082;-55
2022/08/14 11:52:16;;;;;;;3.83;3.38;;;;;;;25.39;50.99;94280.50;5048775;28;19986;-55
2022/08/14 11:54:42;;;;;;;;;;;;;;;25.51;50.86;94287.13;5065003;28;20036;-56